Time;durP1;ratioP1;P1;durP2;ratioP2;P2;SDS_P1;SDS_P2;PMS_P1;PMS_P2;Temp;Humidity;BMP_temperature;BMP_pressure;BME280_temperature;BME280_humidity;BME280_pressure;Samples;Min_cycle;Max_cycle;Signal;HPM_P1;HPM_P2
2021/12/21 00:01:31;;;;;;;;;;;22.80;21.70;;;;;;5121218;28;19968;-46
2021/12/21 00:03:57;;;;;;;;;;;22.90;21.60;;;;;;5120779;28;19923;-48
2021/12/21 00:06:23;;;;;;;;;;;22.80;21.70;;;;;;5126448;28;19973;-46
2021/12/21 00:08:49;;;;;;;;;;;22.90;21.70;;;;;;5121155;28;19923;-43
2021/12/21 00:11:15;;;;;;;;;;;22.90;21.60;;;;;;5126126;28;19931;-45
2021/12/21 00:24:01;;;;;;;;;;;22.90;21.60;;;;;;5120720;28;20019;-44
2021/12/21 00:26:27;;;;;;;;;;;23.00;21.40;;;;;;5125947;28;19923;-49
2021/12/21 00:29:01;;;;;;;;;;;23.00;21.50;;;;;;5120524;28;19933;-53
2021/12/21 00:31:32;;;;;;;;;;;23.10;21.30;;;;;;5120402;28;19938;-51
2021/12/21 00:33:58;;;;;;;;;;;23.20;21.30;;;;;;5125456;28;20260;-48
2021/12/21 00:36:25;;;;;;;;;;;23.20;21.20;;;;;;5120734;28;19988;-53
2021/12/21 00:38:51;;;;;;;;;;;22.80;21.60;;;;;;5120568;28;19933;-53
2021/12/21 00:41:17;;;;;;;;;;;22.50;21.80;;;;;;5125768;27;19934;-52
2021/12/21 00:43:43;;;;;;;;;;;22.40;21.90;;;;;;5120431;28;19971;-51
2021/12/21 00:46:09;;;;;;;;;;;22.40;21.90;;;;;;5125614;28;19931;-52
2021/12/21 00:48:36;;;;;;;;;;;22.40;21.80;;;;;;5120211;28;19976;-52
2021/12/21 00:51:03;;;;;;;;;;;22.30;21.90;;;;;;5120117;28;20010;-51
2021/12/21 00:53:29;;;;;;;;;;;22.40;21.80;;;;;;5125313;28;19979;-50
2021/12/21 00:55:55;;;;;;;;;;;22.30;21.90;;;;;;5120499;28;20362;-49
2021/12/21 00:58:20;;;;;;;;;;;22.30;21.90;;;;;;5120275;28;19963;-49
2021/12/21 01:00:46;;;;;;;;;;;22.40;21.80;;;;;;5125750;28;20450;-48
2021/12/21 01:03:14;;;;;;;;;;;22.40;21.70;;;;;;5120013;28;20018;-49
2021/12/21 01:08:16;;;;;;;;;;;22.30;21.80;;;;;;5124515;28;19940;-46
2021/12/21 01:18:23;;;;;;;;;;;22.30;21.70;;;;;;5120158;28;19952;-47
2021/12/21 01:21:01;;;;;;;;;;;22.40;21.70;;;;;;5125192;28;19930;-47
2021/12/21 01:23:50;;;;;;;;;;;22.30;21.70;;;;;;5119799;28;20439;-46
2021/12/21 01:26:26;;;;;;;;;;;22.30;21.70;;;;;;5119693;28;20294;-50
2021/12/21 01:36:44;;;;;;;;;;;22.30;21.70;;;;;;5123883;28;19927;-54
2021/12/21 01:49:40;;;;;;;;;;;22.40;21.50;;;;;;5119290;28;20012;-46
2021/12/21 01:52:07;;;;;;;;;;;22.30;21.50;;;;;;5123469;28;19924;-51
2021/12/21 01:54:33;;;;;;;;;;;22.40;21.50;;;;;;5104367;28;20014;-46
2021/12/21 01:56:59;;;;;;;;;;;22.30;21.60;;;;;;5123321;28;19923;-47
2021/12/21 01:59:24;;;;;;;;;;;22.30;21.50;;;;;;5128432;28;19993;-46
2021/12/21 02:01:50;;;;;;;;;;;22.30;21.50;;;;;;5122857;28;19935;-48
2021/12/21 02:04:17;;;;;;;;;;;22.40;21.40;;;;;;5122516;28;19928;-48
2021/12/21 02:06:43;;;;;;;;;;;22.30;21.60;;;;;;5127949;28;20398;-51
2021/12/21 02:09:09;;;;;;;;;;;22.30;21.50;;;;;;5123215;28;19927;-49
2021/12/21 02:11:35;;;;;;;;;;;22.30;21.50;;;;;;5123591;28;20363;-55
2021/12/21 02:14:01;;;;;;;;;;;22.30;21.50;;;;;;5128266;28;19924;-46
2021/12/21 02:16:36;;;;;;;;;;;22.30;21.50;;;;;;5122549;28;20390;-48
2021/12/21 02:19:07;;;;;;;;;;;22.30;21.50;;;;;;5109778;28;19924;-50
2021/12/21 02:24:04;;;;;;;;;;;22.30;21.40;;;;;;5122356;28;20321;-47
2021/12/21 02:26:40;;;;;;;;;;;22.30;21.40;;;;;;5109646;28;19934;-46
2021/12/21 02:29:25;;;;;;;;;;;22.30;21.40;;;;;;5122838;28;20013;-48
2021/12/21 02:31:51;;;;;;;;;;;22.30;21.40;;;;;;5122759;28;20318;-48
2021/12/21 02:34:17;;;;;;;;;;;22.30;21.50;;;;;;5128080;28;19934;-47
2021/12/21 02:36:44;;;;;;;;;;;22.20;21.50;;;;;;5104163;28;20026;-47
2021/12/21 02:39:10;;;;;;;;;;;22.30;21.40;;;;;;5122172;28;19971;-47
2021/12/21 02:41:35;;;;;;;;;;;22.30;21.40;;;;;;5109265;28;19931;-47
2021/12/21 02:44:01;;;;;;;;;;;22.20;21.50;;;;;;5102014;28;19927;-46
2021/12/21 02:46:27;;;;;;;;;;;22.30;21.30;;;;;;5122644;28;19932;-49
2021/12/21 02:48:53;;;;;;;;;;;22.30;21.40;;;;;;5127572;28;19951;-48
2021/12/21 02:51:19;;;;;;;;;;;22.30;21.40;;;;;;5122477;28;19930;-47
2021/12/21 02:53:44;;;;;;;;;;;22.30;21.40;;;;;;5127563;28;19923;-49
2021/12/21 02:56:11;;;;;;;;;;;22.30;21.40;;;;;;5122184;28;19931;-47
2021/12/21 02:58:37;;;;;;;;;;;22.30;21.30;;;;;;5121946;28;19923;-47
2021/12/21 03:01:03;;;;;;;;;;;22.30;21.30;;;;;;5126997;28;19929;-49
2021/12/21 03:03:29;;;;;;;;;;;22.30;21.30;;;;;;5121797;28;19934;-50
2021/12/21 03:05:57;;;;;;;;;;;22.30;21.30;;;;;;5122095;27;20120;-45
2021/12/21 03:08:37;;;;;;;;;;;22.30;21.20;;;;;;5127556;28;19949;-47
2021/12/21 03:11:14;;;;;;;;;;;22.30;21.20;;;;;;5103817;28;20328;-46
2021/12/21 03:13:55;;;;;;;;;;;22.30;21.20;;;;;;5121736;28;19927;-46
2021/12/21 03:16:21;;;;;;;;;;;22.40;21.10;;;;;;5127263;28;19930;-46
2021/12/21 03:18:47;;;;;;;;;;;22.30;21.20;;;;;;5121559;28;19923;-46
2021/12/21 03:21:12;;;;;;;;;;;22.40;21.10;;;;;;5123248;28;19932;-52
2021/12/21 03:23:40;;;;;;;;;;;22.40;21.10;;;;;;5125618;28;19938;-47
2021/12/21 03:26:06;;;;;;;;;;;22.30;21.10;;;;;;5121932;28;19950;-47
2021/12/21 03:28:32;;;;;;;;;;;22.30;21.10;;;;;;5127307;28;19928;-46
2021/12/21 03:30:58;;;;;;;;;;;22.30;21.00;;;;;;5121584;28;19930;-45
2021/12/21 03:33:24;;;;;;;;;;;22.30;21.00;;;;;;5103315;28;19933;-46
2021/12/21 03:35:49;;;;;;;;;;;22.30;21.10;;;;;;5127049;28;19930;-46
2021/12/21 03:38:16;;;;;;;;;;;22.40;21.00;;;;;;5121169;28;19924;-47
2021/12/21 03:40:42;;;;;;;;;;;22.40;21.00;;;;;;5121674;28;19927;-47
2021/12/21 03:43:10;;;;;;;;;;;22.40;20.90;;;;;;5127117;28;19951;-46
2021/12/21 03:45:39;;;;;;;;;;;22.40;20.90;;;;;;5121594;28;19930;-45
2021/12/21 03:48:06;;;;;;;;;;;22.40;20.90;;;;;;5127007;28;19927;-47
2021/12/21 03:50:32;;;;;;;;;;;22.40;20.90;;;;;;5120998;28;19927;-46
2021/12/21 03:52:57;;;;;;;;;;;22.40;20.90;;;;;;5120994;28;19972;-47
2021/12/21 03:55:23;;;;;;;;;;;22.40;20.90;;;;;;5126332;28;19923;-47
2021/12/21 03:57:49;;;;;;;;;;;22.50;20.80;;;;;;5120504;28;20026;-46
2021/12/21 04:00:15;;;;;;;;;;;22.50;20.80;;;;;;5121185;28;20301;-46
2021/12/21 04:02:41;;;;;;;;;;;22.50;20.80;;;;;;5106748;28;19985;-47
2021/12/21 04:05:07;;;;;;;;;;;22.50;20.80;;;;;;5121074;28;19927;-45
2021/12/21 04:07:33;;;;;;;;;;;22.30;20.90;;;;;;5125766;28;19970;-53
2021/12/21 04:09:59;;;;;;;;;;;22.40;20.70;;;;;;5121597;28;19930;-46
2021/12/21 04:12:24;;;;;;;;;;;22.50;20.70;;;;;;5120699;28;20435;-47
2021/12/21 04:14:52;;;;;;;;;;;22.50;20.70;;;;;;5126140;28;20477;-50
2021/12/21 04:17:22;;;;;;;;;;;22.50;20.60;;;;;;5119994;27;19929;-47
2021/12/21 04:19:47;;;;;;;;;;;22.50;20.70;;;;;;5121019;28;19927;-46
2021/12/21 04:22:14;;;;;;;;;;;22.40;20.70;;;;;;5126142;28;19970;-47
2021/12/21 04:24:39;;;;;;;;;;;22.40;20.70;;;;;;5120951;28;19927;-46
2021/12/21 04:27:05;;;;;;;;;;;22.40;20.60;;;;;;5120854;28;19981;-52
2021/12/21 04:29:31;;;;;;;;;;;22.40;20.70;;;;;;5126128;28;19971;-50
2021/12/21 04:31:57;;;;;;;;;;;22.40;20.70;;;;;;5120532;28;19923;-45
2021/12/21 04:34:22;;;;;;;;;;;22.40;20.60;;;;;;5125365;28;19958;-47
2021/12/21 04:36:48;;;;;;;;;;;22.40;20.60;;;;;;5120675;28;19924;-45
2021/12/21 04:39:39;;;;;;;;;;;22.40;20.50;;;;;;5120454;28;19927;-47
2021/12/21 04:42:03;;;;;;;;;;;22.40;20.50;;;;;;5125989;28;19923;-47
2021/12/21 04:44:28;;;;;;;;;;;22.50;20.50;;;;;;5120369;28;19931;-46
2021/12/21 04:46:54;;;;;;;;;;;22.50;20.50;;;;;;5120218;28;20014;-47
2021/12/21 04:49:20;;;;;;;;;;;22.40;20.50;;;;;;5125681;28;19931;-45
2021/12/21 04:51:46;;;;;;;;;;;22.40;20.50;;;;;;5120119;28;19927;-46
2021/12/21 04:54:11;;;;;;;;;;;22.40;20.50;;;;;;5120128;28;19934;-51
2021/12/21 04:56:38;;;;;;;;;;;22.40;20.50;;;;;;5125838;28;19923;-45
2021/12/21 04:59:03;;;;;;;;;;;22.50;20.40;;;;;;5120181;28;19933;-49
2021/12/21 05:01:29;;;;;;;;;;;22.60;20.40;;;;;;5125766;28;19974;-45
2021/12/21 05:03:55;;;;;;;;;;;22.50;20.40;;;;;;5120038;28;19924;-45
2021/12/21 05:06:21;;;;;;;;;;;22.60;20.30;;;;;;5119883;28;20374;-46
2021/12/21 05:09:03;;;;;;;;;;;22.60;20.30;;;;;;5125304;28;19987;-45
2021/12/21 05:11:32;;;;;;;;;;;22.60;20.30;;;;;;5119540;28;19923;-45
2021/12/21 05:13:58;;;;;;;;;;;22.60;20.30;;;;;;5120228;28;20027;-46
2021/12/21 05:16:24;;;;;;;;;;;22.60;20.30;;;;;;5125576;28;19927;-44
2021/12/21 05:18:50;;;;;;;;;;;22.70;20.20;;;;;;5120109;28;19923;-46
2021/12/21 05:21:16;;;;;;;;;;;22.60;20.20;;;;;;5120358;28;19931;-52
2021/12/21 05:23:41;;;;;;;;;;;22.60;20.20;;;;;;5124613;28;19931;-44
2021/12/21 05:26:07;;;;;;;;;;;22.70;20.10;;;;;;5119421;28;20334;-44
2021/12/21 05:28:33;;;;;;;;;;;22.60;20.10;;;;;;5125562;27;19977;-46
2021/12/21 05:30:59;;;;;;;;;;;22.70;20.10;;;;;;5123067;28;19928;-44
2021/12/21 05:33:27;;;;;;;;;;;22.70;20.00;;;;;;5123616;28;19923;-44
2021/12/21 05:35:53;;;;;;;;;;;22.70;20.00;;;;;;5128880;28;19923;-44
2021/12/21 05:38:28;;;;;;;;;;;22.70;20.10;;;;;;5123663;28;20435;-43
2021/12/21 05:40:54;;;;;;;;;;;22.80;20.00;;;;;;5123407;28;20298;-47
2021/12/21 05:43:21;;;;;;;;;;;22.80;20.00;;;;;;5128720;28;20023;-45
2021/12/21 05:45:46;;;;;;;;;;;22.80;20.00;;;;;;5123050;28;19927;-47
2021/12/21 05:48:12;;;;;;;;;;;22.70;20.00;;;;;;5127401;28;19930;-53
2021/12/21 05:50:38;;;;;;;;;;;22.80;19.90;;;;;;5124790;28;19945;-45
2021/12/21 05:53:04;;;;;;;;;;;22.70;20.00;;;;;;5123444;28;19924;-46
2021/12/21 05:55:30;;;;;;;;;;;22.80;19.90;;;;;;5128569;28;19933;-46
2021/12/21 05:57:56;;;;;;;;;;;22.70;20.00;;;;;;5123092;28;19973;-45
2021/12/21 06:00:22;;;;;;;;;;;22.80;19.90;;;;;;5122944;28;20328;-44
2021/12/21 06:02:48;;;;;;;;;;;22.80;19.80;;;;;;5128360;28;19924;-45
2021/12/21 06:05:14;;;;;;;;;;;22.80;19.90;;;;;;5104309;28;19990;-46
2021/12/21 06:07:40;;;;;;;;;;;22.80;19.80;;;;;;5124412;28;19923;-51
2021/12/21 06:10:16;;;;;;;;;;;22.80;19.90;;;;;;5126987;28;19927;-43
2021/12/21 06:26:14;;;;;;;;;;;22.80;19.80;;;;;;5085134;28;20012;-44
2021/12/21 06:28:40;;;;;;;;;;;22.80;19.90;;;;;;5122958;28;19935;-46
2021/12/21 06:31:06;;;;;;;;;;;22.80;19.90;;;;;;5122442;28;19927;-47
2021/12/21 06:33:32;;;;;;;;;;;22.90;19.80;;;;;;5128093;28;19924;-46
2021/12/21 06:35:58;;;;;;;;;;;22.80;19.80;;;;;;5122496;28;19974;-44
2021/12/21 06:38:23;;;;;;;;;;;22.80;19.80;;;;;;5127944;28;19973;-46
2021/12/21 06:40:49;;;;;;;;;;;22.80;19.80;;;;;;5121528;27;19923;-46
2021/12/21 06:43:16;;;;;;;;;;;22.80;19.80;;;;;;5121895;28;19924;-45
2021/12/21 06:45:47;;;;;;;;;;;22.80;19.90;;;;;;5127521;28;19930;-49
2021/12/21 06:51:12;;;;;;;;;;;22.80;19.70;;;;;;5122389;28;20010;-48
2021/12/21 06:53:38;;;;;;;;;;;22.90;19.70;;;;;;5127617;28;20006;-48
2021/12/21 06:56:07;;;;;;;;;;;22.90;19.60;;;;;;5122072;28;19934;-49
2021/12/21 06:58:33;;;;;;;;;;;22.80;19.80;;;;;;5121986;28;19931;-50
2021/12/21 07:00:59;;;;;;;;;;;23.00;19.60;;;;;;5127470;28;20007;-49
2021/12/21 07:03:25;;;;;;;;;;;22.90;19.60;;;;;;5121943;28;20222;-51
2021/12/21 07:05:51;;;;;;;;;;;22.90;19.60;;;;;;5122430;28;19927;-49
2021/12/21 07:08:21;;;;;;;;;;;22.90;19.60;;;;;;5127612;28;19927;-50
2021/12/21 07:11:11;;;;;;;;;;;22.90;19.50;;;;;;5122088;28;19973;-51
2021/12/21 07:19:06;;;;;;;;;;;23.00;19.50;;;;;;5121681;28;20016;-51
2021/12/21 07:21:31;;;;;;;;;;;23.00;19.50;;;;;;5121135;28;19949;-53
2021/12/21 07:23:57;;;;;;;;;;;23.00;19.50;;;;;;5127414;28;19931;-52
2021/12/21 07:26:23;;;;;;;;;;;23.00;19.50;;;;;;5121654;28;19927;-50
2021/12/21 07:28:49;;;;;;;;;;;23.10;19.40;;;;;;5126829;28;19923;-59
2021/12/21 07:31:15;;;;;;;;;;;23.10;19.40;;;;;;5122003;28;19924;-54
2021/12/21 07:33:40;;;;;;;;;;;23.10;19.40;;;;;;5121303;28;20010;-53
2021/12/21 07:36:06;;;;;;;;;;;23.10;19.50;;;;;;5126873;28;19952;-53
2021/12/21 07:38:33;;;;;;;;;;;23.10;19.40;;;;;;5121271;28;19923;-54
2021/12/21 07:40:59;;;;;;;;;;;23.10;19.40;;;;;;5121077;28;20337;-52
2021/12/21 07:43:25;;;;;;;;;;;23.00;19.50;;;;;;5126960;28;19961;-53
2021/12/21 07:45:51;;;;;;;;;;;23.30;19.30;;;;;;5121403;28;20371;-53
2021/12/21 07:48:16;;;;;;;;;;;23.10;19.40;;;;;;5124355;28;20017;-56
2021/12/21 07:50:42;;;;;;;;;;;21.90;20.20;;;;;;5123989;27;20419;-49
2021/12/21 07:53:08;;;;;;;;;;;19.60;22.80;;;;;;5120301;28;20010;-47
2021/12/21 07:55:34;;;;;;;;;;;21.30;21.00;;;;;;5126499;28;19946;-49
2021/12/21 07:58:00;;;;;;;;;;;22.00;20.30;;;;;;5120495;28;19976;-48
2021/12/21 08:00:26;;;;;;;;;;;22.20;20.00;;;;;;5121411;28;20018;-48
2021/12/21 08:02:53;;;;;;;;;;;22.40;19.90;;;;;;5107317;28;19937;-46
2021/12/21 08:05:19;;;;;;;;;;;22.40;19.90;;;;;;5121071;28;20293;-48
2021/12/21 08:08:29;;;;;;;;;;;22.50;19.80;;;;;;5121156;28;19968;-50
2021/12/21 08:11:12;;;;;;;;;;;22.50;19.80;;;;;;5115535;28;19931;-49
2021/12/21 08:13:27;;;;;;;;;;;22.60;19.70;;;;;;5116756;28;19927;-47
2021/12/21 08:15:52;;;;;;;;;;;22.80;19.60;;;;;;5120575;28;19923;-49
2021/12/21 08:18:18;;;;;;;;;;;22.70;19.60;;;;;;5126304;28;19924;-47
2021/12/21 08:20:44;;;;;;;;;;;22.80;19.60;;;;;;5120968;28;20410;-48
2021/12/21 08:23:10;;;;;;;;;;;22.90;19.50;;;;;;5122208;28;19981;-55
2021/12/21 08:25:36;;;;;;;;;;;22.90;19.50;;;;;;5125160;28;20298;-49
2021/12/21 08:28:02;;;;;;;;;;;22.90;19.50;;;;;;5120473;28;19950;-51
2021/12/21 08:30:28;;;;;;;;;;;22.90;19.40;;;;;;5107677;28;20018;-48
2021/12/21 08:32:54;;;;;;;;;;;22.90;19.40;;;;;;5120295;28;20426;-48
2021/12/21 08:35:19;;;;;;;;;;;23.00;19.40;;;;;;5120088;28;19928;-49
2021/12/21 08:37:51;;;;;;;;;;;23.00;19.40;;;;;;5126350;28;19923;-48
2021/12/21 08:40:17;;;;;;;;;;;23.00;19.40;;;;;;5120842;28;20479;-53
2021/12/21 08:42:46;;;;;;;;;;;19.40;22.70;;;;;;5120462;28;19946;-49
2021/12/21 08:45:11;;;;;;;;;;;21.20;21.10;;;;;;5125716;28;19923;-47
2021/12/21 08:47:37;;;;;;;;;;;21.80;20.40;;;;;;5120407;28;20011;-50
2021/12/21 08:50:03;;;;;;;;;;;22.30;20.00;;;;;;5125673;28;19924;-49
2021/12/21 08:52:29;;;;;;;;;;;22.40;19.90;;;;;;5119783;28;20295;-51
2021/12/21 08:54:55;;;;;;;;;;;22.60;19.80;;;;;;5100243;28;19996;-49
2021/12/21 08:57:21;;;;;;;;;;;22.60;19.80;;;;;;5125808;28;19927;-51
2021/12/21 08:59:46;;;;;;;;;;;22.70;19.70;;;;;;5120055;28;19924;-48
2021/12/21 09:02:12;;;;;;;;;;;22.80;19.60;;;;;;5100774;27;20243;-51
2021/12/21 09:04:40;;;;;;;;;;;22.90;19.60;;;;;;5125434;28;19935;-50
2021/12/21 09:07:05;;;;;;;;;;;22.90;19.50;;;;;;5120195;28;19923;-48
2021/12/21 09:09:31;;;;;;;;;;;23.00;19.50;;;;;;5123425;28;19928;-57
2021/12/21 09:11:57;;;;;;;;;;;23.00;19.50;;;;;;5121619;28;20002;-50
2021/12/21 09:14:23;;;;;;;;;;;23.10;19.50;;;;;;5119980;28;20014;-47
2021/12/21 09:16:49;;;;;;;;;;;23.00;19.40;;;;;;5125723;28;19923;-51
2021/12/21 09:19:16;;;;;;;;;;;21.30;21.00;;;;;;5120242;28;19927;-49
2021/12/21 09:21:42;;;;;;;;;;;21.20;21.20;;;;;;5119982;28;19928;-52
2021/12/21 09:24:08;;;;;;;;;;;21.90;20.40;;;;;;5125273;28;19923;-51
2021/12/21 09:26:34;;;;;;;;;;;22.40;20.10;;;;;;5119583;28;19923;-53
2021/12/21 09:29:00;;;;;;;;;;;22.60;19.80;;;;;;5119931;28;20367;-57
2021/12/21 09:31:26;;;;;;;;;;;22.70;19.80;;;;;;5124820;28;20014;-55
2021/12/21 09:33:52;;;;;;;;;;;22.80;19.70;;;;;;5101797;28;19954;-52
2021/12/21 09:36:18;;;;;;;;;;;22.90;19.70;;;;;;5125145;28;19931;-53
2021/12/21 09:38:44;;;;;;;;;;;23.00;19.60;;;;;;5119561;28;19930;-54
2021/12/21 09:41:09;;;;;;;;;;;23.10;19.50;;;;;;5119871;28;20329;-50
2021/12/21 09:43:35;;;;;;;;;;;21.30;21.00;;;;;;5124827;28;20301;-49
2021/12/21 09:46:01;;;;;;;;;;;21.00;21.40;;;;;;5119370;28;19923;-47
2021/12/21 09:48:28;;;;;;;;;;;21.90;20.60;;;;;;5100944;28;20059;-47
2021/12/21 09:50:54;;;;;;;;;;;22.30;20.20;;;;;;5124746;28;19975;-51
2021/12/21 09:53:23;;;;;;;;;;;22.60;20.00;;;;;;5119617;28;19931;-50
2021/12/21 09:55:49;;;;;;;;;;;22.70;19.80;;;;;;5124927;28;19927;-49
2021/12/21 09:58:15;;;;;;;;;;;22.80;19.70;;;;;;5119491;28;19928;-49
2021/12/21 10:00:41;;;;;;;;;;;22.90;19.80;;;;;;5119125;28;20018;-48
2021/12/21 10:03:10;;;;;;;;;;;23.00;19.60;;;;;;5123879;27;19972;-50
2021/12/21 10:05:37;;;;;;;;;;;22.40;20.00;;;;;;5119290;28;19972;-50
2021/12/21 10:08:05;;;;;;;;;;;20.70;21.90;;;;;;5118944;28;19927;-48
2021/12/21 10:10:32;;;;;;;;;;;21.80;20.70;;;;;;5125346;27;19930;-50
2021/12/21 10:13:08;;;;;;;;;;;22.30;20.20;;;;;;5100780;28;20010;-50
2021/12/21 10:15:36;;;;;;;;;;;22.50;20.00;;;;;;5121129;27;19934;-53
2021/12/21 10:18:02;;;;;;;;;;;22.70;19.90;;;;;;5128073;28;20025;-51
2021/12/21 10:20:32;;;;;;;;;;;22.80;19.80;;;;;;5126438;27;19923;-52
2021/12/21 10:22:57;;;;;;;;;;;22.90;19.80;;;;;;5130193;27;19922;-51
2021/12/21 10:25:24;;;;;;;;;;;23.00;19.70;;;;;;5142683;27;19931;-53
2021/12/21 10:27:50;;;;;;;;;;;23.00;19.50;;;;;;5143540;27;19936;-48
2021/12/21 10:30:15;;;;;;;;;;;20.00;22.80;;;;;;5148808;27;19923;-51
2021/12/21 10:32:48;;;;;;;;;;;21.60;21.00;;;;;;5143099;27;21041;-50
2021/12/21 10:35:14;;;;;;;;;;;22.30;20.30;;;;;;5139508;27;20528;-52
2021/12/21 10:37:40;;;;;;;;;;;22.60;20.00;;;;;;5148308;27;19931;-50
2021/12/21 10:40:10;;;;;;;;;;;22.70;19.90;;;;;;5143132;27;19966;-49
2021/12/21 10:42:43;;;;;;;;;;;22.80;19.80;;;;;;5142682;27;20355;-50
2021/12/21 10:45:09;;;;;;;;;;;22.90;19.70;;;;;;5147805;27;19975;-51
2021/12/21 10:47:34;;;;;;;;;;;23.00;19.60;;;;;;5143458;27;20406;-56
2021/12/21 10:50:00;;;;;;;;;;;22.60;19.80;;;;;;5130455;27;19937;-53
2021/12/21 10:52:26;;;;;;;;;;;20.10;22.60;;;;;;5124476;27;19948;-49
2021/12/21 10:54:52;;;;;;;;;;;21.70;20.90;;;;;;5142660;27;19923;-49
2021/12/21 10:57:29;;;;;;;;;;;22.30;20.20;;;;;;5148201;27;19930;-51
2021/12/21 10:59:56;;;;;;;;;;;22.60;19.90;;;;;;5142439;27;19957;-49
2021/12/21 11:02:31;;;;;;;;;;;22.80;19.80;;;;;;5142374;27;19923;-49
2021/12/21 11:05:01;;;;;;;;;;;22.90;19.70;;;;;;5147925;27;19937;-59
2021/12/21 11:07:49;;;;;;;;;;;22.70;19.80;;;;;;5143244;27;19931;-56
2021/12/21 11:10:16;;;;;;;;;;;20.50;22.20;;;;;;5142663;27;20317;-50
2021/12/21 11:12:49;;;;;;;;;;;21.90;20.60;;;;;;5148048;27;19937;-54
2021/12/21 11:15:16;;;;;;;;;;;22.40;20.20;;;;;;5142377;27;19923;-50
2021/12/21 11:17:42;;;;;;;;;;;22.70;20.00;;;;;;5142262;27;20503;-50
2021/12/21 11:20:08;;;;;;;;;;;22.80;19.80;;;;;;5147582;27;19923;-52
2021/12/21 11:22:35;;;;;;;;;;;22.90;19.80;;;;;;5142341;27;19929;-55
2021/12/21 11:25:00;;;;;;;;;;;21.90;20.40;;;;;;5146659;27;19950;-58
2021/12/21 11:27:27;;;;;;;;;;;21.00;21.50;;;;;;5144469;27;19985;-58
2021/12/21 11:29:53;;;;;;;;;;;22.00;20.50;;;;;;5123841;27;19958;-57
2021/12/21 11:32:19;;;;;;;;;;;22.40;20.00;;;;;;5129103;27;20010;-57
2021/12/21 11:35:08;;;;;;;;;;;22.70;19.80;;;;;;5120926;27;19934;-60
2021/12/21 11:37:31;;;;;;;;;;;22.90;19.60;;;;;;5118693;27;19931;-59
2021/12/21 11:39:56;;;;;;;;;;;23.00;19.50;;;;;;5147625;27;20087;-58
2021/12/21 11:42:42;;;;;;;;;;;20.00;22.20;;;;;;5142425;27;20033;-55
2021/12/21 11:45:08;;;;;;;;;;;21.40;21.00;;;;;;5141298;27;19935;-53
2021/12/21 11:47:35;;;;;;;;;;;22.30;20.10;;;;;;5147446;27;19923;-53
2021/12/21 11:50:04;;;;;;;;;;;22.60;19.80;;;;;;5123362;27;20064;-54
2021/12/21 11:52:31;;;;;;;;;;;22.80;19.70;;;;;;5123509;27;19933;-51
2021/12/21 11:54:57;;;;;;;;;;;22.90;19.50;;;;;;5147552;27;19923;-57
2021/12/21 11:57:39;;;;;;;;;;;22.00;20.30;;;;;;5142141;27;19937;-56
2021/12/21 12:00:06;;;;;;;;;;;20.40;22.10;;;;;;5141854;27;19923;-51
2021/12/21 12:02:33;;;;;;;;;;;21.90;20.40;;;;;;5147571;27;19953;-53
2021/12/21 12:04:59;;;;;;;;;;;22.40;20.00;;;;;;5141527;27;19927;-50
2021/12/21 12:07:25;;;;;;;;;;;22.70;19.70;;;;;;5147422;27;19983;-53
2021/12/21 12:10:04;;;;;;;;;;;22.90;19.60;;;;;;5141720;27;19930;-61
2021/12/21 12:12:30;;;;;;;;;;;22.70;19.60;;;;;;5142243;27;20305;-54
2021/12/21 12:14:59;;;;;;;;;;;20.10;22.40;;;;;;5146974;27;19930;-59
2021/12/21 12:17:26;;;;;;;;;;;21.80;20.70;;;;;;5141057;27;20010;-60
2021/12/21 12:19:54;;;;;;;;;;;22.30;20.10;;;;;;5123684;27;19929;-58
2021/12/21 12:22:24;;;;;;;;;;;22.70;19.80;;;;;;5146814;27;19933;-59
2021/12/21 12:24:56;;;;;;;;;;;22.90;19.60;;;;;;5116004;27;19983;-55
2021/12/21 12:27:24;;;;;;;;;;;23.00;19.40;;;;;;5141532;27;21221;-52
2021/12/21 12:29:54;;;;;;;;;;;19.30;23.00;;;;;;5146558;27;19931;-59
2021/12/21 12:32:30;;;;;;;;;;;21.60;20.80;;;;;;5122741;27;21061;-58
2021/12/21 12:35:06;;;;;;;;;;;22.20;20.30;;;;;;5137191;27;19923;-59
2021/12/21 12:37:32;;;;;;;;;;;22.60;19.90;;;;;;5145980;27;19945;-59
2021/12/21 12:40:07;;;;;;;;;;;22.80;19.70;;;;;;5141335;27;20369;-61
2021/12/21 12:42:34;;;;;;;;;;;23.00;19.50;;;;;;5142243;27;19934;-60
2021/12/21 12:45:11;;;;;;;;;;;23.10;19.50;;;;;;5147152;27;20374;-60
2021/12/21 12:47:43;;;;;;;;;;;19.70;22.60;;;;;;5122690;27;19934;-55
2021/12/21 12:50:16;;;;;;;;;;;21.60;20.90;;;;;;5145358;27;19975;-60
2021/12/21 12:52:53;;;;;;;;;;;22.40;20.10;;;;;;5126625;27;19950;-54
2021/12/21 12:55:19;;;;;;;;;;;22.70;19.80;;;;;;5140763;27;19933;-56
2021/12/21 12:57:49;;;;;;;;;;;23.00;19.60;;;;;;5122810;27;19924;-58
2021/12/21 13:00:17;;;;;;;;;;;21.90;20.30;;;;;;5142183;27;20426;-59
2021/12/21 13:02:56;;;;;;;;;;;21.00;21.40;;;;;;5140996;27;19923;-60
2021/12/21 13:05:52;;;;;;;;;;;22.10;20.30;;;;;;5146148;27;19923;-60
2021/12/21 13:08:22;;;;;;;;;;;22.60;19.90;;;;;;5132491;27;19946;-60
2021/12/21 13:10:49;;;;;;;;;;;22.80;19.70;;;;;;5140569;27;20305;-60
2021/12/21 13:13:15;;;;;;;;;;;23.10;19.50;;;;;;5107881;27;19975;-62
2021/12/21 13:15:42;;;;;;;;;;;20.00;22.50;;;;;;5122438;27;19970;-57
2021/12/21 13:18:08;;;;;;;;;;;21.60;21.10;;;;;;5140969;27;20326;-57
2021/12/21 13:20:34;;;;;;;;;;;22.40;20.30;;;;;;5146139;27;19923;-59
2021/12/21 13:23:10;;;;;;;;;;;22.70;20.00;;;;;;5140566;27;19979;-60
2021/12/21 13:25:36;;;;;;;;;;;23.00;19.80;;;;;;5141582;27;19927;-58
2021/12/21 13:28:20;;;;;;;;;;;19.70;23.00;;;;;;5145748;27;19950;-57
2021/12/21 13:30:46;;;;;;;;;;;21.60;21.10;;;;;;5140243;27;19930;-60
2021/12/21 13:33:17;;;;;;;;;;;22.40;20.30;;;;;;5140540;27;19995;-59
2021/12/21 13:35:43;;;;;;;;;;;22.80;20.00;;;;;;5145927;27;20018;-60
2021/12/21 13:38:13;;;;;;;;;;;22.90;19.90;;;;;;5140844;27;19926;-61
2021/12/21 13:40:39;;;;;;;;;;;22.30;20.40;;;;;;5141120;27;20014;-57
2021/12/21 13:43:11;;;;;;;;;;;20.60;22.60;;;;;;5145585;27;19924;-58
2021/12/21 13:45:37;;;;;;;;;;;22.30;20.90;;;;;;5121571;27;19926;-59
2021/12/21 13:48:03;;;;;;;;;;;22.90;20.40;;;;;;5145461;27;20386;-61
2021/12/21 13:50:29;;;;;;;;;;;23.30;20.20;;;;;;5106421;27;19930;-56
2021/12/21 13:52:56;;;;;;;;;;;22.10;21.00;;;;;;5144836;27;19923;-56
2021/12/21 13:55:23;;;;;;;;;;;21.30;22.00;;;;;;5149236;27;20428;-48
2021/12/21 13:57:50;;;;;;;;;;;22.40;20.90;;;;;;5143803;27;19927;-52
2021/12/21 14:00:16;;;;;;;;;;;22.90;20.50;;;;;;5143586;27;19933;-50
2021/12/21 14:02:42;;;;;;;;;;;23.30;20.20;;;;;;5149028;27;19926;-58
2021/12/21 14:05:08;;;;;;;;;;;22.80;20.50;;;;;;5143715;27;19933;-58
2021/12/21 14:07:35;;;;;;;;;;;20.40;23.10;;;;;;5145974;27;20381;-60
2021/12/21 14:10:07;;;;;;;;;;;21.90;21.30;;;;;;5145177;27;20050;-59
2021/12/21 14:12:33;;;;;;;;;;;22.50;20.70;;;;;;5143736;27;19923;-59
2021/12/21 14:14:59;;;;;;;;;;;22.80;20.40;;;;;;5149144;27;19923;-59
2021/12/21 14:17:28;;;;;;;;;;;23.10;20.10;;;;;;5125774;27;19972;-59
2021/12/21 14:19:57;;;;;;;;;;;21.80;21.20;;;;;;5093709;27;19928;-58
2021/12/21 14:22:23;;;;;;;;;;;21.00;22.00;;;;;;5129900;27;19923;-56
2021/12/21 14:24:50;;;;;;;;;;;22.10;20.90;;;;;;5124435;27;19923;-55
2021/12/21 14:27:16;;;;;;;;;;;22.70;20.40;;;;;;5124085;27;19974;-55
2021/12/21 14:29:43;;;;;;;;;;;22.90;20.30;;;;;;5148841;27;20002;-56
2021/12/21 14:34:37;;;;;;;;;;;22.90;20.40;;;;;;5130105;27;19973;-54
2021/12/21 14:37:05;;;;;;;;;;;23.00;20.40;;;;;;5143944;27;19930;-55
2021/12/21 14:39:31;;;;;;;;;;;23.30;20.40;;;;;;5125928;27;19923;-58
2021/12/21 14:41:58;;;;;;;;;;;23.30;20.20;;;;;;5130451;27;20034;-59
2021/12/21 14:44:25;;;;;;;;;;;20.20;23.20;;;;;;5105432;27;20436;-57
2021/12/21 14:46:52;;;;;;;;;;;21.70;22.00;;;;;;5142925;27;19923;-59
2021/12/21 14:49:41;;;;;;;;;;;22.60;21.00;;;;;;5114419;27;19934;-60
2021/12/21 14:52:24;;;;;;;;;;;23.10;20.70;;;;;;5143006;27;19929;-60
2021/12/21 14:54:58;;;;;;;;;;;23.20;20.50;;;;;;5143965;27;19923;-60
2021/12/21 14:57:30;;;;;;;;;;;19.60;23.60;;;;;;5144162;27;19981;-58
2021/12/21 14:59:56;;;;;;;;;;;21.70;21.60;;;;;;5123823;27;20014;-59
2021/12/21 15:02:49;;;;;;;;;;;22.30;20.90;;;;;;5141935;27;19923;-59
2021/12/21 15:05:08;;;;;;;;;;;22.70;20.50;;;;;;5147485;27;19927;-58
2021/12/21 15:07:34;;;;;;;;;;;23.00;20.30;;;;;;5143855;27;20453;-61
2021/12/21 15:10:01;;;;;;;;;;;21.50;21.50;;;;;;5143512;27;19923;-57
2021/12/21 15:12:27;;;;;;;;;;;21.20;22.00;;;;;;5148131;27;19927;-53
2021/12/21 15:14:53;;;;;;;;;;;22.20;20.90;;;;;;5142206;27;19927;-55
2021/12/21 15:17:19;;;;;;;;;;;22.70;20.50;;;;;;5145581;27;20381;-60
2021/12/21 15:19:44;;;;;;;;;;;22.90;20.30;;;;;;5144627;27;19934;-53
2021/12/21 15:22:10;;;;;;;;;;;23.20;20.10;;;;;;5142819;27;19923;-59
2021/12/21 15:24:38;;;;;;;;;;;20.30;22.50;;;;;;5148080;27;19931;-57
2021/12/21 15:27:04;;;;;;;;;;;21.30;21.70;;;;;;5124035;27;19969;-54